Time;durP1;ratioP1;P1;durP2;ratioP2;P2;SDS_P1;SDS_P2;PMS_P1;PMS_P2;Temp;Humidity;BMP_temperature;BMP_pressure;BME280_temperature;BME280_humidity;BME280_pressure;Samples;Min_cycle;Max_cycle;Signal;HPM_P1;HPM_P2
2020/12/16 00:00:51;;;;;;;16.70;9.02;;;3.70;91.60;;;;;;5052232;28;20065;-72
2020/12/16 00:03:16;;;;;;;16.67;9.13;;;3.70;91.40;;;;;;5052662;28;20033;-72
2020/12/16 00:05:42;;;;;;;19.02;9.60;;;3.60;91.30;;;;;;5053977;28;20384;-72
2020/12/16 00:08:08;;;;;;;16.98;8.60;;;3.70;91.40;;;;;;5053669;28;20032;-72
2020/12/16 00:10:34;;;;;;;18.90;9.57;;;3.60;91.40;;;;;;5053790;28;20025;-73
2020/12/16 00:13:00;;;;;;;36.50;16.67;;;3.70;91.40;;;;;;5053652;28;20064;-72
2020/12/16 00:15:26;;;;;;;26.83;13.27;;;3.60;91.20;;;;;;5051975;28;20077;-71
2020/12/16 00:17:52;;;;;;;24.45;12.60;;;3.60;91.30;;;;;;5052297;28;20040;-72
2020/12/16 00:20:18;;;;;;;23.13;12.65;;;3.70;91.30;;;;;;5053465;28;20044;-72
2020/12/16 00:22:43;;;;;;;21.00;11.88;;;3.70;91.30;;;;;;5052328;28;20035;-72
2020/12/16 00:25:10;;;;;;;18.08;9.77;;;3.70;91.50;;;;;;5053726;28;20108;-73
2020/12/16 00:27:37;;;;;;;17.83;9.38;;;3.70;91.20;;;;;;5053550;28;20032;-72
2020/12/16 00:30:07;;;;;;;16.45;8.93;;;3.70;91.10;;;;;;5053398;28;20025;-73
2020/12/16 00:32:37;;;;;;;11.35;6.35;;;3.70;91.10;;;;;;5053448;28;20087;-73
2020/12/16 00:35:07;;;;;;;12.95;8.15;;;3.70;91.00;;;;;;5053400;28;20040;-73
2020/12/16 00:37:40;;;;;;;18.10;9.73;;;3.70;90.90;;;;;;5051882;28;20024;-73
2020/12/16 00:40:08;;;;;;;16.40;8.23;;;3.60;90.90;;;;;;5035946;28;20031;-73
2020/12/16 00:42:34;;;;;;;18.33;9.68;;;3.60;90.90;;;;;;5052892;28;20029;-73
2020/12/16 00:45:00;;;;;;;17.52;9.30;;;3.60;90.90;;;;;;5053155;28;20094;-73
2020/12/16 00:47:26;;;;;;;17.15;8.85;;;3.60;90.90;;;;;;5053496;28;20025;-73
2020/12/16 00:49:52;;;;;;;17.80;9.60;;;3.50;90.80;;;;;;5053289;28;20481;-73
2020/12/16 00:52:17;;;;;;;14.13;7.47;;;3.50;90.80;;;;;;5053597;28;20025;-72
2020/12/16 00:54:44;;;;;;;17.60;8.95;;;3.50;90.70;;;;;;5052212;28;20364;-73
2020/12/16 00:57:10;;;;;;;15.18;8.65;;;3.50;90.80;;;;;;5054289;28;20108;-73
2020/12/16 00:59:36;;;;;;;18.00;8.95;;;3.50;90.80;;;;;;5058711;28;20471;-71
2020/12/16 01:02:05;;;;;;;17.25;9.57;;;3.50;90.80;;;;;;5057383;28;20048;-73
2020/12/16 01:04:31;;;;;;;17.60;9.13;;;3.50;90.90;;;;;;5057427;28;20029;-72
2020/12/16 01:06:57;;;;;;;15.65;8.52;;;3.60;90.90;;;;;;5053591;28;20021;-73
2020/12/16 01:09:23;;;;;;;17.50;9.57;;;3.60;90.90;;;;;;5052337;28;20025;-72
2020/12/16 01:11:49;;;;;;;16.33;8.15;;;3.60;90.80;;;;;;5053145;28;20033;-72
2020/12/16 01:14:14;;;;;;;15.57;8.52;;;3.60;90.70;;;;;;5051901;28;20017;-72
2020/12/16 01:16:40;;;;;;;16.10;8.77;;;3.50;90.60;;;;;;5053118;28;20033;-72
2020/12/16 01:19:07;;;;;;;16.85;9.10;;;3.50;90.60;;;;;;5053312;28;20017;-72
2020/12/16 01:21:37;;;;;;;15.77;8.55;;;3.50;90.60;;;;;;5051580;28;20037;-72
2020/12/16 01:24:06;;;;;;;16.17;7.93;;;3.50;90.60;;;;;;5052370;28;20071;-72
2020/12/16 01:26:36;;;;;;;14.65;7.82;;;3.50;90.60;;;;;;5052659;28;20025;-71
2020/12/16 01:29:02;;;;;;;14.55;8.07;;;3.50;90.60;;;;;;5051545;28;20025;-71
2020/12/16 01:31:35;;;;;;;16.95;9.02;;;3.50;90.60;;;;;;5052714;28;20471;-72
2020/12/16 01:34:00;;;;;;;17.55;9.48;;;3.50;90.60;;;;;;5052422;28;20033;-72
2020/12/16 01:36:26;;;;;;;16.85;9.07;;;3.50;90.50;;;;;;5052695;28;20418;-72
2020/12/16 01:38:52;;;;;;;17.10;8.93;;;3.50;90.50;;;;;;5052759;28;20032;-72
2020/12/16 01:41:17;;;;;;;17.15;9.20;;;3.50;90.50;;;;;;5052530;28;20110;-72
2020/12/16 01:43:43;;;;;;;19.02;9.60;;;3.50;90.50;;;;;;5052344;28;20028;-75
2020/12/16 01:46:09;;;;;;;19.02;10.05;;;3.50;90.40;;;;;;5051508;28;20021;-71
2020/12/16 01:48:35;;;;;;;18.10;8.35;;;3.50;90.40;;;;;;5055001;28;20021;-72
2020/12/16 01:51:00;;;;;;;15.45;8.57;;;3.50;90.40;;;;;;5056358;28;20039;-72
2020/12/16 01:53:29;;;;;;;15.85;9.73;;;3.50;90.40;;;;;;5055991;28;20091;-71
2020/12/16 01:55:54;;;;;;;15.18;7.53;;;3.50;90.40;;;;;;5055988;28;20025;-73
2020/12/16 01:58:23;;;;;;;14.15;7.05;;;3.50;90.30;;;;;;5056131;28;20021;-73
2020/12/16 02:00:51;;;;;;;13.73;7.57;;;3.50;90.30;;;;;;5054825;28;20053;-72
2020/12/16 02:03:20;;;;;;;14.65;8.35;;;3.40;90.00;;;;;;5055932;28;20083;-72
2020/12/16 02:05:50;;;;;;;16.05;8.20;;;3.40;90.10;;;;;;5056094;28;20021;-73
2020/12/16 02:08:19;;;;;;;16.08;8.57;;;3.40;90.20;;;;;;5055097;28;20021;-72
2020/12/16 02:10:45;;;;;;;18.50;9.48;;;3.40;90.30;;;;;;5056176;28;20035;-73
2020/12/16 02:13:11;;;;;;;14.57;8.30;;;3.40;90.20;;;;;;5056027;28;20053;-72
2020/12/16 02:15:37;;;;;;;17.95;10.13;;;3.40;90.10;;;;;;5055752;28;20071;-71
2020/12/16 02:18:03;;;;;;;17.52;9.15;;;3.40;90.20;;;;;;5046529;28;20109;-73
2020/12/16 02:20:28;;;;;;;18.63;9.60;;;3.40;90.20;;;;;;5035662;28;20026;-71
2020/12/16 02:22:56;;;;;;;16.45;9.77;;;3.40;90.10;;;;;;5039333;28;20109;-72
2020/12/16 02:25:22;;;;;;;16.58;8.75;;;3.30;90.00;;;;;;5053123;28;20021;-71
2020/12/16 02:27:48;;;;;;;15.63;8.40;;;3.30;90.10;;;;;;5055339;28;20143;-71
2020/12/16 02:30:13;;;;;;;17.38;9.23;;;3.30;90.10;;;;;;5055702;28;20056;-72
2020/12/16 02:32:40;;;;;;;19.00;9.73;;;3.30;90.10;;;;;;5055423;28;20040;-72
2020/12/16 02:35:07;;;;;;;15.05;8.65;;;3.30;90.20;;;;;;5055411;28;20040;-71
2020/12/16 02:37:32;;;;;;;15.43;8.35;;;3.30;90.10;;;;;;5054484;28;20056;-71
2020/12/16 02:39:58;;;;;;;17.08;9.18;;;3.30;90.10;;;;;;5053867;28;20471;-72
2020/12/16 02:42:26;;;;;;;18.15;9.70;;;3.30;90.10;;;;;;5054383;28;20082;-72
2020/12/16 02:44:53;;;;;;;17.17;9.68;;;3.30;90.10;;;;;;5054033;28;20477;-73
2020/12/16 02:47:19;;;;;;;20.88;10.50;;;3.30;90.10;;;;;;5055472;28;20471;-72
2020/12/16 02:49:45;;;;;;;20.38;11.45;;;3.30;90.10;;;;;;5053980;28;20029;-72
2020/12/16 02:52:11;;;;;;;18.38;10.43;;;3.40;90.10;;;;;;5055384;28;20036;-72
2020/12/16 02:54:37;;;;;;;19.73;10.82;;;3.40;90.30;;;;;;5054353;28;20100;-72
2020/12/16 02:57:03;;;;;;;22.35;12.45;;;3.40;90.10;;;;;;5053952;28;20021;-72
2020/12/16 02:59:29;;;;;;;22.63;12.35;;;3.30;90.10;;;;;;5053797;28;20025;-72
2020/12/16 03:01:56;;;;;;;17.23;9.07;;;3.40;90.00;;;;;;5055500;28;20387;-71
2020/12/16 03:04:23;;;;;;;15.60;9.18;;;3.40;90.00;;;;;;5060293;28;20017;-72
2020/12/16 03:06:54;;;;;;;18.77;10.10;;;3.40;90.00;;;;;;5055354;28;20033;-72
2020/12/16 03:09:22;;;;;;;18.80;10.20;;;3.40;89.80;;;;;;5055631;28;20033;-72
2020/12/16 03:11:55;;;;;;;17.98;9.30;;;3.30;89.80;;;;;;5053814;28;20083;-72
2020/12/16 03:14:21;;;;;;;17.45;9.98;;;3.40;90.00;;;;;;5055313;28;20063;-72
2020/12/16 03:16:48;;;;;;;21.33;11.90;;;3.30;89.90;;;;;;5054776;28;20025;-74
2020/12/16 03:19:14;;;;;;;25.38;13.13;;;3.30;89.80;;;;;;5055192;28;20067;-72
2020/12/16 03:21:40;;;;;;;21.20;10.95;;;3.30;89.90;;;;;;5052348;28;20068;-73
2020/12/16 03:24:06;;;;;;;19.75;10.93;;;3.30;89.80;;;;;;5053574;28;20067;-73
2020/12/16 03:26:31;;;;;;;16.58;9.20;;;3.30;89.70;;;;;;5054252;28;20028;-74
2020/12/16 03:28:57;;;;;;;16.80;9.38;;;3.30;89.70;;;;;;5054258;28;20360;-67
2020/12/16 03:31:23;;;;;;;18.42;9.25;;;3.30;89.40;;;;;;5054470;28;20039;-69
2020/12/16 03:33:48;;;;;;;19.45;10.25;;;3.30;89.40;;;;;;5054362;28;20032;-67
2020/12/16 03:36:19;;;;;;;17.65;10.02;;;3.30;89.60;;;;;;5054346;28;20021;-69
2020/12/16 03:38:46;;;;;;;19.95;10.68;;;3.30;89.70;;;;;;5054252;28;20032;-69
2020/12/16 03:41:16;;;;;;;18.83;9.93;;;3.30;89.70;;;;;;5054065;28;20025;-69
2020/12/16 03:43:49;;;;;;;21.13;11.27;;;3.30;89.70;;;;;;5052819;28;20414;-68
2020/12/16 03:46:16;;;;;;;21.10;10.65;;;3.30;89.70;;;;;;5054068;28;20021;-69
2020/12/16 03:48:43;;;;;;;21.23;11.32;;;3.30;89.60;;;;;;5053003;28;20025;-70
2020/12/16 03:51:11;;;;;;;19.50;10.23;;;3.30;89.70;;;;;;5053979;28;20079;-69
2020/12/16 03:53:38;;;;;;;20.05;10.48;;;3.30;89.70;;;;;;5054105;28;20111;-69
2020/12/16 03:56:12;;;;;;;20.13;9.82;;;3.20;89.50;;;;;;5052301;28;20025;-69
2020/12/16 03:58:43;;;;;;;19.63;10.52;;;3.30;89.60;;;;;;5053079;28;20028;-69
2020/12/16 04:01:10;;;;;;;17.55;9.63;;;3.30;89.50;;;;;;5053797;28;20135;-70
2020/12/16 04:03:36;;;;;;;17.55;9.50;;;3.30;89.30;;;;;;5047464;28;20027;-69
2020/12/16 04:06:06;;;;;;;18.70;9.82;;;3.30;89.20;;;;;;5045014;28;20024;-69
2020/12/16 04:08:32;;;;;;;27.45;13.35;;;3.20;89.20;;;;;;5052298;28;20056;-68
2020/12/16 04:10:58;;;;;;;25.20;12.52;;;3.20;89.20;;;;;;5053055;28;20416;-69
2020/12/16 04:13:23;;;;;;;24.67;11.90;;;3.20;89.20;;;;;;5053885;28;20056;-68
2020/12/16 04:15:49;;;;;;;26.45;12.70;;;3.20;89.20;;;;;;5053635;28;20031;-69
2020/12/16 04:18:15;;;;;;;17.02;8.85;;;3.20;89.20;;;;;;5053504;28;20029;-69
2020/12/16 04:20:40;;;;;;;17.15;9.55;;;3.10;89.00;;;;;;5053452;28;20029;-68
2020/12/16 04:23:07;;;;;;;16.42;8.77;;;3.10;88.90;;;;;;5053437;28;20074;-68
2020/12/16 04:25:33;;;;;;;19.05;9.52;;;3.10;89.00;;;;;;5051761;28;20147;-72
2020/12/16 04:27:59;;;;;;;18.63;9.43;;;3.10;89.30;;;;;;5053310;28;20471;-72
2020/12/16 04:30:28;;;;;;;19.17;10.02;;;3.10;89.50;;;;;;5052612;28;20106;-72
2020/12/16 04:32:57;;;;;;;18.67;10.63;;;3.10;89.40;;;;;;5053317;28;20071;-72
2020/12/16 04:35:24;;;;;;;22.17;12.50;;;3.10;89.30;;;;;;5051990;28;20036;-72
2020/12/16 04:37:51;;;;;;;22.02;12.10;;;3.10;89.40;;;;;;5051550;28;20021;-72
2020/12/16 04:40:17;;;;;;;23.65;12.43;;;3.10;89.30;;;;;;5053390;28;20025;-73
2020/12/16 04:42:43;;;;;;;21.98;13.73;;;3.10;89.30;;;;;;5053044;28;20083;-73
2020/12/16 04:45:09;;;;;;;24.23;12.18;;;3.10;89.10;;;;;;5053109;28;20024;-72
2020/12/16 04:47:35;;;;;;;28.77;13.43;;;3.00;89.10;;;;;;5052852;28;20035;-72
2020/12/16 04:50:05;;;;;;;27.73;12.55;;;3.00;89.30;;;;;;5052985;28;20071;-73
2020/12/16 04:52:32;;;;;;;21.33;11.75;;;3.10;89.40;;;;;;5052844;28;20025;-72
2020/12/16 04:54:59;;;;;;;17.27;9.90;;;3.10;89.40;;;;;;5052774;28;20017;-72
2020/12/16 04:57:25;;;;;;;16.40;8.90;;;3.10;89.40;;;;;;5052161;28;20477;-72
2020/12/16 04:59:55;;;;;;;19.70;10.48;;;3.10;89.30;;;;;;5053359;28;20104;-72
2020/12/16 05:02:21;;;;;;;21.05;11.80;;;3.00;89.30;;;;;;5051891;28;20111;-72
2020/12/16 05:04:47;;;;;;;38.33;15.18;;;3.10;89.40;;;;;;5053772;28;20025;-71
2020/12/16 05:07:41;;;;;;;45.13;18.05;;;3.10;89.40;;;;;;5054166;28;20032;-73
2020/12/16 05:10:07;;;;;;;25.15;13.23;;;3.10;89.30;;;;;;5041694;28;20033;-72
2020/12/16 05:12:35;;;;;;;25.42;12.80;;;3.10;89.10;;;;;;5056968;28;20486;-73
2020/12/16 05:15:02;;;;;;;22.60;12.20;;;3.10;89.20;;;;;;5062164;28;20025;-71
2020/12/16 05:17:27;;;;;;;20.05;10.70;;;3.10;89.10;;;;;;5058173;28;20100;-71
2020/12/16 05:19:53;;;;;;;27.73;14.80;;;3.10;89.00;;;;;;5055720;28;20086;-72
2020/12/16 05:22:29;;;;;;;31.88;15.60;;;3.10;89.00;;;;;;5054508;28;20113;-71
2020/12/16 05:24:59;;;;;;;27.05;12.77;;;3.00;88.90;;;;;;5056473;28;20025;-72
2020/12/16 05:27:30;;;;;;;27.85;14.00;;;3.10;89.00;;;;;;5052279;28;20053;-72
2020/12/16 05:30:09;;;;;;;30.98;13.82;;;3.00;89.00;;;;;;5056324;28;20053;-73
2020/12/16 05:32:36;;;;;;;26.15;14.10;;;3.00;89.00;;;;;;5055348;28;20029;-73
2020/12/16 05:35:27;;;;;;;26.05;13.70;;;3.00;89.00;;;;;;5056922;28;20033;-71
2020/12/16 05:38:12;;;;;;;27.40;13.65;;;3.00;89.10;;;;;;5056112;28;20074;-72
2020/12/16 05:40:40;;;;;;;21.92;10.60;;;3.00;88.90;;;;;;5056461;28;20098;-71
2020/12/16 05:43:07;;;;;;;25.15;14.02;;;2.90;88.80;;;;;;5056322;28;20029;-71
2020/12/16 05:45:40;;;;;;;28.55;14.05;;;2.90;89.50;;;;;;5056286;28;20406;-72
2020/12/16 05:48:09;;;;;;;45.72;22.85;;;2.90;89.20;;;;;;5051517;28;20033;-72
2020/12/16 05:50:36;;;;;;;57.15;26.08;;;3.00;89.30;;;;;;5039950;28;20100;-72
2020/12/16 05:53:20;;;;;;;44.50;20.60;;;3.00;89.30;;;;;;5046897;28;20076;-74
2020/12/16 05:55:50;;;;;;;38.40;20.65;;;3.00;89.30;;;;;;5046336;28;20029;-72
2020/12/16 05:58:18;;;;;;;31.27;15.98;;;3.00;89.30;;;;;;5042776;28;20017;-72
2020/12/16 06:00:46;;;;;;;30.00;15.05;;;3.10;89.20;;;;;;5051381;28;20057;-72
2020/12/16 06:03:25;;;;;;;30.52;14.75;;;3.00;89.20;;;;;;5045890;28;20764;-73
2020/12/16 06:05:57;;;;;;;29.45;14.27;;;3.00;89.10;;;;;;5038349;28;20048;-73
2020/12/16 06:08:24;;;;;;;39.70;22.20;;;3.00;89.80;;;;;;5038798;28;20060;-74
2020/12/16 06:10:51;;;;;;;43.53;22.30;;;2.90;88.70;;;;;;5039075;28;20388;-74
2020/12/16 06:13:18;;;;;;;36.50;19.58;;;2.90;88.80;;;;;;5039716;28;20020;-71
2020/12/16 06:16:04;;;;;;;32.50;18.10;;;2.90;88.80;;;;;;5041952;28;20114;-75
2020/12/16 06:18:37;;;;;;;;;;;2.90;89.10;;;;;;5043938;28;20048;-72
2020/12/16 06:21:04;;;;;;;31.20;15.60;;;2.90;89.00;;;;;;5047225;28;20346;-71
2020/12/16 06:23:39;;;;;;;31.10;16.30;;;2.90;89.20;;;;;;5053217;28;20509;-73
2020/12/16 06:26:10;;;;;;;22.13;11.70;;;2.90;89.40;;;;;;5048949;28;20078;-72
2020/12/16 06:28:37;;;;;;;27.77;14.18;;;2.90;89.50;;;;;;5053289;28;20047;-74
2020/12/16 06:31:25;;;;;;;27.48;13.57;;;3.00;89.00;;;;;;5044622;28;20025;-71
2020/12/16 06:33:59;;;;;;;22.88;10.50;;;3.00;88.80;;;;;;5048309;28;20036;-70
2020/12/16 06:36:30;;;;;;;24.67;12.98;;;2.90;88.20;;;;;;5039699;28;20108;-70
2020/12/16 06:38:56;;;;;;;31.00;14.55;;;2.90;88.10;;;;;;5041250;28;20120;-70
2020/12/16 06:41:28;;;;;;;23.10;10.68;;;2.80;88.10;;;;;;5040564;28;20039;-73
2020/12/16 06:44:10;;;;;;;29.98;14.43;;;2.70;88.10;;;;;;5043159;28;20115;-73
2020/12/16 06:46:40;;;;;;;28.83;15.02;;;2.70;88.40;;;;;;5043983;28;20048;-71
2020/12/16 06:49:13;;;;;;;26.25;14.20;;;2.80;89.10;;;;;;5054067;28;20031;-74
2020/12/16 06:51:42;;;;;;;132.40;47.53;;;2.80;89.20;;;;;;5037606;28;20049;-72
2020/12/16 06:54:15;;;;;;;47.13;19.33;;;2.90;89.10;;;;;;5038936;28;20044;-73
2020/12/16 06:56:43;;;;;;;28.75;13.95;;;2.90;88.90;;;;;;5044709;28;20061;-72
2020/12/16 06:59:12;;;;;;;27.42;11.80;;;2.90;88.80;;;;;;5041599;28;20112;-73
2020/12/16 07:01:37;;;;;;;21.70;11.90;;;2.90;88.40;;;;;;5053391;28;20061;-72
2020/12/16 07:04:03;;;;;;;29.65;14.25;;;2.80;88.20;;;;;;5041871;28;20036;-71
2020/12/16 07:06:29;;;;;;;23.90;12.93;;;2.80;88.70;;;;;;5044539;28;20076;-70
2020/12/16 07:09:20;;;;;;;31.33;15.95;;;2.80;88.90;;;;;;5054348;28;20387;-70
2020/12/16 07:11:51;;;;;;;35.92;19.75;;;2.80;89.20;;;;;;5040693;28;20438;-69
2020/12/16 07:14:19;;;;;;;51.22;25.00;;;2.80;89.00;;;;;;5043303;28;20128;-71
2020/12/16 07:16:47;;;;;;;29.77;14.93;;;2.90;89.10;;;;;;5040597;28;20048;-71
2020/12/16 07:19:25;;;;;;;30.98;17.08;;;2.80;88.80;;;;;;5047204;28;20029;-71
2020/12/16 07:21:52;;;;;;;38.88;19.27;;;2.90;89.10;;;;;;5036238;28;20051;-68
2020/12/16 07:24:18;;;;;;;35.13;19.48;;;2.90;88.90;;;;;;5043749;28;20055;-69
2020/12/16 07:26:53;;;;;;;29.92;15.68;;;2.90;89.00;;;;;;5050776;28;20032;-71
2020/12/16 07:29:33;;;;;;;68.63;27.77;;;2.90;88.90;;;;;;5054615;28;20040;-70
2020/12/16 07:32:11;;;;;;;42.55;22.90;;;3.00;89.50;;;;;;5053056;28;20360;-70
2020/12/16 07:34:54;;;;;;;57.20;27.15;;;3.00;89.40;;;;;;5052963;28;20025;-70
2020/12/16 07:37:25;;;;;;;51.28;26.08;;;3.10;89.10;;;;;;5053240;28;20026;-71
2020/12/16 07:40:10;;;;;;;47.88;24.90;;;3.10;88.70;;;;;;5053994;28;20029;-70
2020/12/16 07:42:36;;;;;;;41.65;21.55;;;3.10;88.80;;;;;;5053850;28;20033;-70
2020/12/16 07:45:06;;;;;;;39.65;22.23;;;3.10;88.60;;;;;;5053456;28;20040;-70
2020/12/16 07:47:32;;;;;;;61.28;28.80;;;3.10;88.50;;;;;;5053537;28;20048;-71
2020/12/16 07:49:58;;;;;;;71.28;33.13;;;3.00;88.20;;;;;;5035641;28;20203;-70
2020/12/16 07:52:25;;;;;;;61.83;28.15;;;3.00;88.00;;;;;;5046329;28;20112;-70
2020/12/16 07:54:50;;;;;;;132.43;60.20;;;3.00;88.00;;;;;;5053767;28;20360;-70
2020/12/16 07:57:16;;;;;;;50.17;26.35;;;2.90;88.20;;;;;;5052741;28;20109;-70
2020/12/16 07:59:42;;;;;;;44.72;21.65;;;2.90;88.40;;;;;;5054390;28;20029;-71
2020/12/16 08:02:11;;;;;;;40.03;19.98;;;3.00;88.30;;;;;;5053823;28;20518;-70
2020/12/16 08:04:38;;;;;;;39.65;18.75;;;2.90;88.30;;;;;;5053856;28;20474;-70
2020/12/16 08:07:18;;;;;;;39.47;18.85;;;2.90;88.30;;;;;;5046963;28;20014;-71
2020/12/16 08:10:04;;;;;;;30.92;14.10;;;2.90;88.40;;;;;;5044676;28;20049;-72
2020/12/16 08:12:30;;;;;;;;;;;3.00;88.80;;;;;;5054069;28;20044;-72
2020/12/16 08:15:15;;;;;;;64.88;20.45;;;3.00;88.30;;;;;;5052200;28;19931;-73
2020/12/16 08:17:41;;;;;;;33.55;15.48;;;3.00;88.30;;;;;;5043263;28;20391;-73
2020/12/16 08:20:12;;;;;;;30.40;16.05;;;2.90;88.10;;;;;;5049713;28;20414;-73
2020/12/16 08:22:39;;;;;;;28.58;15.15;;;2.90;88.00;;;;;;5052113;28;20041;-72
2020/12/16 08:25:11;;;;;;;22.95;12.32;;;2.80;88.10;;;;;;5053474;28;20036;-72
2020/12/16 08:27:44;;;;;;;39.13;14.88;;;2.80;87.90;;;;;;5049264;28;20384;-73
2020/12/16 08:30:12;;;;;;;51.47;16.65;;;2.70;87.40;;;;;;5032427;28;20518;-73
2020/12/16 08:33:04;;;;;;;49.40;16.98;;;2.60;87.50;;;;;;5049399;28;20025;-73
2020/12/16 08:35:32;;;;;;;50.58;18.25;;;2.60;87.90;;;;;;5053624;28;20025;-72
2020/12/16 08:38:08;;;;;;;81.30;28.40;;;2.60;88.10;;;;;;5051948;28;20048;-71
2020/12/16 08:40:40;;;;;;;105.55;35.63;;;2.60;88.30;;;;;;5053975;28;20107;-72
2020/12/16 08:43:21;;;;;;;103.00;38.67;;;2.60;88.30;;;;;;5047487;28;20034;-73
2020/12/16 08:45:48;;;;;;;65.93;23.92;;;2.60;88.30;;;;;;5042274;28;20026;-73
2020/12/16 08:48:14;;;;;;;71.28;22.60;;;2.60;88.40;;;;;;5039519;28;20104;-73
2020/12/16 08:50:40;;;;;;;97.82;28.45;;;2.70;88.60;;;;;;5052167;28;20132;-72
2020/12/16 08:53:06;;;;;;;107.75;28.13;;;2.70;88.60;;;;;;5051551;28;20023;-73
2020/12/16 08:55:37;;;;;;;77.75;23.70;;;2.70;88.50;;;;;;5053424;28;20043;-72
2020/12/16 08:58:03;;;;;;;41.35;17.15;;;2.70;88.20;;;;;;5052723;28;20490;-71
2020/12/16 09:00:33;;;;;;;36.88;17.52;;;2.60;87.80;;;;;;5051674;28;20040;-72
2020/12/16 09:03:12;;;;;;;56.08;22.67;;;2.60;88.00;;;;;;5053037;28;20044;-73
2020/12/16 09:05:39;;;;;;;79.55;25.30;;;2.60;88.30;;;;;;5053048;28;20029;-72
2020/12/16 09:08:11;;;;;;;71.22;24.40;;;2.60;88.50;;;;;;5053538;28;20048;-72
2020/12/16 09:10:39;;;;;;;63.13;23.67;;;2.60;88.60;;;;;;5055167;28;20174;-73
2020/12/16 09:13:16;;;;;;;73.00;24.00;;;2.70;88.80;;;;;;5054421;28;20021;-71
2020/12/16 09:15:48;;;;;;;98.88;33.47;;;2.70;88.90;;;;;;5061536;28;20024;-73
2020/12/16 09:18:13;;;;;;;36.13;16.65;;;2.80;89.10;;;;;;5055188;28;20075;-72
2020/12/16 09:20:39;;;;;;;36.50;16.40;;;2.90;89.20;;;;;;5057320;28;20059;-71
2020/12/16 09:23:05;;;;;;;47.10;21.00;;;2.90;88.90;;;;;;5056991;28;20025;-72
2020/12/16 09:25:31;;;;;;;104.10;28.52;;;3.00;88.90;;;;;;5056496;28;20047;-73
2020/12/16 09:27:59;;;;;;;152.43;39.42;;;2.90;88.60;;;;;;5054405;28;20056;-72
2020/12/16 09:30:33;;;;;;;122.43;37.00;;;2.90;88.50;;;;;;5057672;28;20033;-72
2020/12/16 09:33:14;;;;;;;91.38;29.83;;;2.90;88.50;;;;;;5034905;28;20021;-72
2020/12/16 09:35:41;;;;;;;89.25;30.02;;;2.90;88.50;;;;;;5045721;28;20021;-73
2020/12/16 09:38:17;;;;;;;43.55;19.85;;;2.90;88.60;;;;;;5052401;28;20025;-72
2020/12/16 09:40:44;;;;;;;44.08;20.73;;;2.90;88.90;;;;;;5053009;28;20402;-74
2020/12/16 09:43:10;;;;;;;66.32;25.10;;;3.00;89.20;;;;;;5051841;28;20411;-72
2020/12/16 09:45:37;;;;;;;115.45;30.60;;;3.00;89.00;;;;;;5039237;28;20117;-72
2020/12/16 09:48:04;;;;;;;100.85;28.42;;;3.00;88.90;;;;;;5036858;28;20602;-72
2020/12/16 09:50:32;;;;;;;58.53;24.33;;;3.00;88.40;;;;;;5051188;28;20056;-72
2020/12/16 09:53:01;;;;;;;72.18;26.05;;;3.00;88.10;;;;;;5051408;28;20032;-72
2020/12/16 09:55:28;;;;;;;65.00;28.23;;;3.00;87.60;;;;;;5052554;28;20052;-72
2020/12/16 09:58:13;;;;;;;51.78;22.95;;;2.90;87.50;;;;;;5050884;28;20029;-72
2020/12/16 10:00:43;;;;;;;30.48;14.95;;;2.90;87.90;;;;;;5050681;28;20091;-73
2020/12/16 10:03:10;;;;;;;32.55;15.38;;;2.90;88.10;;;;;;5052392;28;20041;-72
2020/12/16 10:05:38;;;;;;;41.38;20.60;;;2.80;87.60;;;;;;5052466;28;20021;-72
2020/12/16 10:08:11;;;;;;;28.15;14.48;;;2.80;87.60;;;;;;5050673;28;20021;-72
2020/12/16 10:10:37;;;;;;;50.95;23.83;;;2.80;88.00;;;;;;5054794;28;20025;-72
2020/12/16 10:13:03;;;;;;;88.22;31.10;;;2.70;87.90;;;;;;5054373;28;20029;-73
2020/12/16 10:15:29;;;;;;;44.20;20.45;;;2.70;87.60;;;;;;5054789;28;20033;-73
2020/12/16 10:17:55;;;;;;;38.10;18.55;;;2.60;87.80;;;;;;5055568;28;20032;-72
2020/12/16 10:20:21;;;;;;;28.02;14.35;;;2.60;87.60;;;;;;5055742;28;20367;-72
2020/12/16 10:22:47;;;;;;;45.03;20.65;;;2.60;87.60;;;;;;5054353;28;20028;-72
2020/12/16 10:25:13;;;;;;;42.85;20.50;;;2.60;88.00;;;;;;5055581;28;20029;-72
2020/12/16 10:27:40;;;;;;;74.60;33.53;;;2.60;88.20;;;;;;5053919;28;20063;-72
2020/12/16 10:30:06;;;;;;;65.35;30.95;;;2.50;88.00;;;;;;5054239;28;20112;-72
2020/12/16 10:32:34;;;;;;;28.27;13.35;;;2.50;88.20;;;;;;5054380;28;20881;-72
2020/12/16 10:35:00;;;;;;;35.40;16.25;;;2.50;88.10;;;;;;5054432;28;20029;-72
2020/12/16 10:37:27;;;;;;;33.90;16.55;;;2.50;88.20;;;;;;5055373;28;20032;-72
2020/12/16 10:39:53;;;;;;;29.25;14.73;;;2.50;88.50;;;;;;5054150;28;20021;-73
2020/12/16 10:42:21;;;;;;;34.67;17.33;;;2.50;88.50;;;;;;5054087;28;20493;-73
2020/12/16 10:44:46;;;;;;;40.65;18.80;;;2.60;88.60;;;;;;5055296;28;20100;-73
2020/12/16 10:47:12;;;;;;;45.17;22.40;;;2.50;88.50;;;;;;5054153;28;20506;-73
2020/12/16 10:49:39;;;;;;;39.78;19.70;;;2.50;88.90;;;;;;5055037;28;20066;-73
2020/12/16 10:52:11;;;;;;;40.92;21.70;;;2.60;89.10;;;;;;5053646;28;20033;-73
2020/12/16 10:54:37;;;;;;;38.72;17.73;;;2.60;88.70;;;;;;5039825;28;20116;-73
2020/12/16 10:57:04;;;;;;;34.60;16.80;;;2.60;89.00;;;;;;5055101;28;20055;-73
2020/12/16 10:59:30;;;;;;;28.23;13.18;;;2.70;89.10;;;;;;5053870;28;20410;-73
2020/12/16 11:01:59;;;;;;;31.13;14.18;;;2.70;88.70;;;;;;5055148;28;20064;-72
2020/12/16 11:04:30;;;;;;;31.63;14.68;;;2.70;88.30;;;;;;5055314;28;20024;-73
2020/12/16 11:06:56;;;;;;;23.67;11.50;;;2.70;88.60;;;;;;5040266;28;20070;-73
2020/12/16 11:09:23;;;;;;;24.20;10.73;;;2.60;88.40;;;;;;5056529;28;20078;-73
2020/12/16 11:11:51;;;;;;;21.38;10.77;;;2.60;88.20;;;;;;5059846;28;20021;-72
2020/12/16 11:14:18;;;;;;;23.58;10.70;;;2.50;88.00;;;;;;5057716;28;20086;-71
2020/12/16 11:16:44;;;;;;;28.50;12.80;;;2.40;87.90;;;;;;5056501;28;20021;-73
2020/12/16 11:19:13;;;;;;;24.17;12.27;;;2.40;88.20;;;;;;5058434;28;20028;-73
2020/12/16 11:21:50;;;;;;;28.02;14.68;;;2.40;88.40;;;;;;5055590;28;20037;-70
2020/12/16 11:24:19;;;;;;;34.15;16.17;;;2.40;88.60;;;;;;5058020;28;20017;-72
2020/12/16 11:26:47;;;;;;;43.92;18.20;;;2.30;88.50;;;;;;5057830;28;20044;-71
2020/12/16 11:29:15;;;;;;;31.45;17.15;;;2.30;88.80;;;;;;5057983;28;20100;-73
2020/12/16 11:31:46;;;;;;;31.23;14.30;;;2.30;89.50;;;;;;5056979;28;20383;-72
2020/12/16 11:34:17;;;;;;;30.38;13.93;;;2.40;88.90;;;;;;5054383;28;20028;-72
2020/12/16 11:36:45;;;;;;;35.58;18.50;;;2.30;88.70;;;;;;5053030;28;20032;-73
2020/12/16 11:39:12;;;;;;;34.50;15.55;;;2.30;88.70;;;;;;5052793;28;20025;-72
2020/12/16 11:41:42;;;;;;;26.45;13.32;;;2.30;88.60;;;;;;5053137;28;20033;-72
2020/12/16 11:44:08;;;;;;;33.65;15.73;;;2.20;88.70;;;;;;5052715;28;20017;-72
2020/12/16 11:46:34;;;;;;;31.58;14.10;;;2.30;88.90;;;;;;5052877;28;20383;-72
2020/12/16 11:49:01;;;;;;;42.10;17.38;;;2.30;89.00;;;;;;5052804;28;20029;-72
2020/12/16 11:51:27;;;;;;;29.05;14.77;;;2.30;89.00;;;;;;5054188;28;20029;-72
2020/12/16 11:53:53;;;;;;;33.80;18.00;;;2.30;89.00;;;;;;5052490;28;20025;-72
2020/12/16 11:56:19;;;;;;;35.95;17.15;;;2.30;89.40;;;;;;5052506;28;20029;-72
2020/12/16 11:58:46;;;;;;;32.83;16.33;;;2.40;89.70;;;;;;5052696;28;20459;-72
2020/12/16 12:01:12;;;;;;;30.50;14.77;;;2.40;89.40;;;;;;5053195;28;20045;-73
2020/12/16 12:03:39;;;;;;;28.10;14.30;;;2.40;89.30;;;;;;5052351;28;20502;-72
2020/12/16 12:06:09;;;;;;;28.33;13.48;;;2.40;89.20;;;;;;5052592;28;20050;-72
2020/12/16 12:08:35;;;;;;;29.58;13.93;;;2.40;89.20;;;;;;5052465;28;20122;-72
2020/12/16 12:11:01;;;;;;;27.27;13.27;;;2.30;89.20;;;;;;5053728;28;20119;-72
2020/12/16 12:13:27;;;;;;;26.08;11.93;;;2.30;89.40;;;;;;5053290;28;20464;-71
2020/12/16 12:15:53;;;;;;;45.50;17.48;;;2.40;89.50;;;;;;5052278;28;20025;-72
2020/12/16 12:18:18;;;;;;;26.70;10.85;;;2.40;89.40;;;;;;5053249;28;20033;-71
2020/12/16 12:20:44;;;;;;;27.45;12.35;;;2.40;88.90;;;;;;5052627;28;20025;-71
2020/12/16 12:23:10;;;;;;;38.47;16.00;;;2.30;89.00;;;;;;5053896;28;20028;-73
2020/12/16 12:25:35;;;;;;;42.45;18.20;;;2.30;89.20;;;;;;5053492;28;20064;-72
2020/12/16 12:28:02;;;;;;;32.05;13.80;;;2.30;89.20;;;;;;5052676;28;20047;-71
2020/12/16 12:30:27;;;;;;;47.30;20.90;;;2.30;89.40;;;;;;5053454;28;20455;-72
2020/12/16 12:32:53;;;;;;;28.85;13.90;;;2.30;89.10;;;;;;5053032;28;20025;-72
2020/12/16 12:35:19;;;;;;;36.05;16.42;;;2.20;88.60;;;;;;5053626;28;20421;-71
2020/12/16 12:37:45;;;;;;;30.67;14.18;;;2.20;88.50;;;;;;5052983;28;20537;-73
2020/12/16 12:40:10;;;;;;;28.27;12.80;;;2.10;88.70;;;;;;5052223;28;20090;-73
2020/12/16 12:42:36;;;;;;;43.42;20.48;;;2.10;89.00;;;;;;5052048;28;20037;-71
2020/12/16 12:45:03;;;;;;;42.13;19.00;;;2.10;89.10;;;;;;5053947;28;20099;-72
2020/12/16 12:47:29;;;;;;;35.63;17.20;;;2.10;89.10;;;;;;5052011;28;20032;-72